Bagotville, Canada
Current Conditions -  °F | °C
As of 5:00 PM on Monday 26 Jan 2015 (Local Time) from CYBG Reporting Station
Few Clouds Few Clouds  
Wind Chill: -4°   Ceiling: Unl
Heat Index: -4°   Visibility: 25mi
Dew Point: -13°   Wind: 3mph
Humidity: 65%   Direction: 40°NE
Pressure: 30.27"   Gusts: NA
Location:  48.34°N, 71°W
Report Text: CYBG 262200Z 04003KT 25SM FEW150 FEW240 M20/M25 A3027 RMK AS1CI0 SLP271
Loading
Personal Weather Stations






























Interactive Weather Map New forecast layout! Learn more

10-Day Weather Forecast

Advertisements
Track Severe Weather on mobile